首页
METAR-TAF:

METAR-TAF

机场 :

Fort Severn, 安大略省, 加拿大

纬度: 56-01-08N, 经度: 87-40-34W, 海拔: 16米

当前天气观测

该预报发布于1小时和2分钟前的00:00 UTC
风速5节,风向北转东北
温度 1°C
湿度 75%
气压 1022 hPa
能見度: 14.5公里
阴天层高于3100英尺

METAR: CYER 010000Z AUTO 03005KT 9SM OVC031 01/M03 A3017 RMK SLP218

时间: 21:02 (01:02 UTC)

预报

该预报发布于10小时和32分钟前的14:30 UTC
预报有效从31日的 15点(UTC)到 31日的 19点(UTC)
风速10节,风向北转西北,有时为20节阵风
能見度: 10公里
阴天层高于2500英尺
短暂存在
从 31日的 15点(UTC)到 31日的 19点(UTC)
能見度: 10公里
阴天层高于2000英尺
小阵雨

TAF: CYER 311430Z 3115/3119 34010G20KT P6SM OVC025 TEMPO 3115/3119 P6SM -SHRA OVC020 RMK FCST BASED ON AUTO OBS. NXT FCST WILL BE ISSUED AT 010845Z

超过4000个机场的气象观测和天气预报(METAR&TAF报告)。

可查询的气象台以黄色和红色小点在地图上表示。

将鼠标移到小点上方,可查看气象台名称。

然后点击查看天气观测和预报。

如需切换地图:点击带黑十字的绿色按钮放大地图;点击带横线的绿色按钮缩小地图;或者点击绿色箭头查看邻近地区的地图。


METAR-TAF: